Time;durP1;ratioP1;P1;durP2;ratioP2;P2;SDS_P1;SDS_P2;PMS_P1;PMS_P2;Temp;Humidity;BMP_temperature;BMP_pressure;BME280_temperature;BME280_humidity;BME280_pressure;Samples;Min_cycle;Max_cycle;Signal;HPM_P1;HPM_P2
2022/09/25 00:00:36;;;;;;;13.27;12.27;;;;;;;12.82;100.00;98222.03;4170393;28;20223;-46
2022/09/25 00:02:38;;;;;;;15.68;14.30;;;;;;;12.82;100.00;98211.06;4140789;28;20288;-48
2022/09/25 00:04:39;;;;;;;12.95;11.95;;;;;;;12.98;100.00;98220.19;4151881;28;20210;-47
2022/09/25 00:06:41;;;;;;;17.20;15.63;;;;;;;12.89;100.00;98217.13;4152828;28;20561;-47
2022/09/25 00:08:44;;;;;;;17.58;16.08;;;;;;;12.71;100.00;98220.38;4159267;28;20734;-48
2022/09/25 00:10:49;;;;;;;14.05;12.95;;;;;;;12.70;100.00;98213.22;4154774;28;20267;-47
2022/09/25 00:12:51;;;;;;;14.25;13.15;;;;;;;12.72;100.00;98210.22;4167300;28;20238;-48
2022/09/25 00:14:54;;;;;;;12.68;11.68;;;;;;;12.76;100.00;98217.63;4154147;28;20254;-48
2022/09/25 00:16:56;;;;;;;13.15;12.05;;;;;;;12.80;100.00;98216.00;4152267;28;20370;-48
2022/09/25 00:21:18;;;;;;;9.52;8.63;;;;;;;12.84;100.00;98214.34;4156053;28;20219;-48
2022/09/25 00:23:20;;;;;;;8.85;8.15;;;;;;;12.84;100.00;98217.09;4166769;28;20250;-47
2022/09/25 00:25:25;;;;;;;8.00;7.35;;;;;;;12.89;100.00;98214.38;4153518;28;20211;-48
2022/09/25 00:27:26;;;;;;;6.70;6.20;;;;;;;12.90;100.00;98212.47;4158442;28;20292;-47
2022/09/25 00:29:29;;;;;;;6.75;6.13;;;;;;;12.91;100.00;98203.94;4152923;28;20296;-47
2022/09/25 00:31:31;;;;;;;7.25;6.65;;;;;;;12.94;100.00;98208.91;4154853;28;20209;-48
2022/09/25 00:33:34;;;;;;;6.82;6.30;;;;;;;12.96;100.00;98201.22;4155399;28;20211;-47
2022/09/25 00:35:35;;;;;;;7.40;6.80;;;;;;;12.97;100.00;98202.88;4153801;28;20284;-47
2022/09/25 00:37:37;;;;;;;6.57;5.95;;;;;;;12.99;100.00;98200.69;4155144;28;20690;-47
2022/09/25 00:39:39;;;;;;;6.63;6.22;;;;;;;13.00;100.00;98202.34;4156267;28;21137;-47
2022/09/25 00:41:41;;;;;;;6.45;5.85;;;;;;;12.98;100.00;98198.22;4156920;28;21099;-48
2022/09/25 00:43:55;;;;;;;9.25;8.45;;;;;;;12.93;100.00;98196.25;4170773;28;20300;-47
2022/09/25 00:45:56;;;;;;;7.68;6.97;;;;;;;12.92;100.00;98194.63;4168492;28;20223;-48
2022/09/25 00:48:00;;;;;;;6.20;5.60;;;;;;;12.92;100.00;98200.09;4158362;28;20213;-48
2022/09/25 00:50:04;;;;;;;8.27;7.57;;;;;;;12.93;100.00;98196.25;4153242;28;20317;-48
2022/09/25 00:52:09;;;;;;;7.72;7.00;;;;;;;12.95;100.00;98194.09;4158273;28;20236;-48
2022/09/25 00:54:32;;;;;;;6.90;6.30;;;;;;;12.96;100.00;98201.22;4157839;28;20208;-48
2022/09/25 00:56:38;;;;;;;6.57;6.07;;;;;;;12.99;100.00;98188.88;4140021;28;20288;-47
2022/09/25 00:58:40;;;;;;;11.90;6.75;;;;;;;12.93;100.00;98196.25;4140677;28;20211;-47
2022/09/25 01:00:42;;;;;;;6.80;6.30;;;;;;;12.90;100.00;98193.25;4162986;28;20227;-48
2022/09/25 01:02:54;;;;;;;6.75;6.25;;;;;;;12.88;100.00;98195.41;4162992;28;20229;-47
2022/09/25 01:05:02;;;;;;;6.65;6.15;;;;;;;12.93;100.00;98193.50;4151447;28;20201;-47
2022/09/25 01:07:07;;;;;;;6.40;5.93;;;;;;;12.87;100.00;98194.59;4162037;28;20211;-47
2022/09/25 01:09:12;;;;;;;5.00;4.57;;;;;;;12.92;100.00;98197.38;4149026;28;20593;-48
2022/09/25 01:11:15;;;;;;;4.90;4.50;;;;;;;12.93;100.00;98199.00;4159401;28;20209;-47
2022/09/25 01:13:17;;;;;;;6.68;6.18;;;;;;;12.96;100.00;98198.47;4140375;28;20237;-47
2022/09/25 01:15:22;;;;;;;7.78;7.18;;;;;;;12.95;100.00;98202.31;4135807;28;20245;-47
2022/09/25 01:17:29;;;;;;;7.78;7.07;;;;;;;12.96;100.00;98190.25;4154676;28;20204;-48
2022/09/25 01:19:58;;;;;;;8.45;6.47;;;;;;;12.92;100.00;98189.13;4159407;28;20227;-47
2022/09/25 01:22:12;;;;;;;7.82;7.22;;;;;;;12.96;100.00;98194.94;4157507;28;20206;-48
2022/09/25 01:24:41;;;;;;;7.82;7.30;;;;;;;12.93;100.00;98195.44;4171535;28;20227;-46
2022/09/25 01:26:51;;;;;;;7.25;6.70;;;;;;;12.94;100.00;98189.66;4171104;28;20205;-47
2022/09/25 01:28:53;;;;;;;7.93;7.30;;;;;;;12.95;100.00;98191.34;4157576;28;20239;-47
2022/09/25 01:31:03;;;;;;;9.23;7.22;;;;;;;12.97;100.00;98186.38;4157611;28;20345;-47
2022/09/25 01:33:15;;;;;;;7.50;6.78;;;;;;;12.97;100.00;98186.38;4156004;28;20204;-48
2022/09/25 01:35:39;;;;;;;7.35;6.75;;;;;;;12.95;100.00;98187.75;4168606;28;20291;-47
2022/09/25 01:37:56;;;;;;;7.32;6.72;;;;;;;12.96;100.00;98184.75;4151855;28;20211;-48
2022/09/25 01:40:19;;;;;;;6.68;6.18;;;;;;;12.95;100.00;98188.59;4155150;28;20228;-47
2022/09/25 01:42:25;;;;;;;5.85;5.35;;;;;;;12.95;100.00;98177.59;4154145;28;20213;-47
2022/09/25 01:44:37;;;;;;;5.70;5.30;;;;;;;12.94;100.00;98181.44;4153111;28;20217;-47
2022/09/25 01:46:43;;;;;;;5.80;5.30;;;;;;;12.95;100.00;98182.25;4155427;28;22094;-47
2022/09/25 01:48:50;;;;;;;6.50;6.00;;;;;;;12.97;100.00;98185.59;4154387;28;20211;-47
2022/09/25 01:51:07;;;;;;;5.50;5.10;;;;;;;12.98;100.00;98182.53;4151743;28;20220;-47
2022/09/25 01:53:13;;;;;;;6.55;6.05;;;;;;;12.98;100.00;98177.03;4158783;28;20207;-47
2022/09/25 01:55:22;;;;;;;5.65;5.25;;;;;;;13.00;100.00;98174.88;4166053;28;20746;-47
2022/09/25 01:57:35;;;;;;;6.25;5.65;;;;;;;13.01;100.00;98171.03;4154505;28;20200;-47
2022/09/25 01:59:46;;;;;;;6.13;5.63;;;;;;;13.00;100.00;98176.78;4148740;28;20258;-47
2022/09/25 02:01:47;;;;;;;6.28;5.88;;;;;;;13.10;100.00;98169.38;4144494;28;20779;-48
2022/09/25 02:03:55;;;;;;;8.02;7.40;;;;;;;13.06;100.00;98173.78;4147416;28;20236;-47
2022/09/25 02:06:01;;;;;;;7.85;7.35;;;;;;;12.96;100.00;98162.78;4153774;28;20292;-47
2022/09/25 02:08:07;;;;;;;8.95;8.18;;;;;;;12.96;100.00;98173.75;4157297;28;20203;-47
2022/09/25 02:10:12;;;;;;;7.47;6.82;;;;;;;12.96;100.00;98171.00;4151493;28;20235;-47
2022/09/25 02:12:39;;;;;;;12.15;6.70;;;;;;;12.87;100.00;98164.41;4153407;28;20749;-47
2022/09/25 02:14:52;;;;;;;9.57;8.88;;;;;;;12.85;100.00;98165.75;4154879;28;20646;-47
2022/09/25 02:16:57;;;;;;;10.15;9.18;;;;;;;12.82;100.00;98169.88;4160380;28;20242;-48
2022/09/25 02:21:30;;;;;;;9.10;8.50;;;;;;;12.72;100.00;98174.53;4158267;28;20287;-47
2022/09/25 02:24:00;;;;;;;8.25;7.65;;;;;;;12.74;100.00;98172.31;4157098;28;20637;-47
2022/09/25 02:26:07;;;;;;;9.00;8.30;;;;;;;12.71;100.00;98173.69;4172309;28;20205;-47
2022/09/25 02:28:09;;;;;;;8.88;8.07;;;;;;;12.85;100.00;98166.56;4171790;28;20596;-47
2022/09/25 02:30:11;;;;;;;11.00;10.10;;;;;;;12.80;100.00;98165.75;4168961;28;20610;-48
2022/09/25 02:32:16;;;;;;;9.77;9.07;;;;;;;12.83;100.00;98166.03;4169853;28;20232;-47
2022/09/25 02:34:17;;;;;;;10.70;9.57;;;;;;;12.78;100.00;98166.00;4170399;28;20247;-47
2022/09/25 02:36:22;;;;;;;8.90;8.25;;;;;;;12.78;100.00;98177.00;4169277;28;20236;-47
2022/09/25 02:38:24;;;;;;;8.93;8.27;;;;;;;12.82;100.00;98169.03;4155389;28;20237;-47
2022/09/25 02:41:01;;;;;;;10.48;9.68;;;;;;;12.87;100.00;98164.41;4167022;28;20230;-48
2022/09/25 02:43:20;;;;;;;8.98;8.10;;;;;;;12.84;100.00;98167.66;4141339;28;20208;-48
2022/09/25 02:45:24;;;;;;;9.88;9.05;;;;;;;12.86;100.00;98168.25;4159644;28;20196;-47
2022/09/25 02:47:43;;;;;;;10.25;9.55;;;;;;;12.88;100.00;98165.19;4169068;28;20208;-47
2022/09/25 02:50:04;;;;;;;9.45;8.75;;;;;;;12.84;100.00;98162.19;4168537;28;20235;-48
2022/09/25 02:52:12;;;;;;;8.68;8.05;;;;;;;12.89;100.00;98162.19;4166904;28;20681;-47
2022/09/25 02:54:43;;;;;;;8.93;7.97;;;;;;;12.87;100.00;98164.41;4153604;28;20207;-48
2022/09/25 02:57:07;;;;;;;9.98;9.27;;;;;;;12.93;100.00;98171.53;4130216;28;20202;-47
2022/09/25 02:59:17;;;;;;;9.65;8.95;;;;;;;12.94;100.00;98164.94;4151737;28;20214;-48
2022/09/25 03:01:21;;;;;;;9.52;8.73;;;;;;;12.98;100.00;98165.25;4142680;28;20304;-47
2022/09/25 03:03:24;;;;;;;8.80;8.05;;;;;;;12.96;100.00;98172.97;4152383;28;20213;-47
2022/09/25 03:05:26;;;;;;;9.80;9.00;;;;;;;12.90;100.00;98172.06;4151980;28;20295;-45
2022/09/25 03:07:28;;;;;;;10.35;9.43;;;;;;;12.84;100.00;98170.41;4139494;28;20205;-48
2022/09/25 03:12:52;;;;;;;8.85;7.40;;;;;;;12.92;100.00;98169.91;4137799;28;20343;-48
2022/09/25 03:14:54;;;;;;;9.73;9.02;;;;;;;12.93;100.00;98168.78;4152597;28;20205;-48
2022/09/25 03:16:57;;;;;;;10.43;9.63;;;;;;;12.92;100.00;98174.56;4154800;28;20294;-48
2022/09/25 03:18:59;;;;;;;11.25;8.85;;;;;;;12.90;100.00;98172.06;4167287;28;20375;-49
2022/09/25 03:21:03;;;;;;;9.38;8.68;;;;;;;12.93;100.00;98168.78;4155566;28;20227;-48
2022/09/25 03:23:04;;;;;;;10.65;9.65;;;;;;;12.98;100.00;98168.00;4161205;28;20204;-48
2022/09/25 03:25:07;;;;;;;8.35;7.80;;;;;;;12.98;100.00;98176.25;4157796;28;20248;-48
2022/09/25 03:27:08;;;;;;;11.82;9.18;;;;;;;13.02;100.00;98167.19;4152750;28;20357;-48
2022/09/25 03:29:11;;;;;;;10.40;9.35;;;;;;;13.02;100.00;98172.66;4151878;28;20215;-49
2022/09/25 03:31:13;;;;;;;9.40;8.68;;;;;;;13.03;100.00;98174.31;4154965;28;20239;-48
2022/09/25 03:33:16;;;;;;;8.32;7.72;;;;;;;13.01;100.00;98171.03;4154282;28;20630;-48
2022/09/25 03:35:18;;;;;;;10.10;9.20;;;;;;;13.03;100.00;98174.31;4152498;28;20202;-48
2022/09/25 03:37:19;;;;;;;9.70;8.60;;;;;;;13.05;100.00;98172.09;4150931;28;20701;-48
2022/09/25 03:39:21;;;;;;;9.52;8.88;;;;;;;13.04;100.00;98170.47;4155033;28;20205;-48
2022/09/25 03:41:22;;;;;;;9.80;9.07;;;;;;;13.03;100.00;98168.81;4164724;28;20200;-49
2022/09/25 03:43:24;;;;;;;9.48;8.73;;;;;;;13.01;100.00;98165.53;4158539;28;20595;-48
2022/09/25 03:45:26;;;;;;;9.63;8.88;;;;;;;12.97;100.00;98164.41;4150297;28;20624;-47
2022/09/25 03:47:27;;;;;;;10.80;9.90;;;;;;;12.98;100.00;98170.75;4147693;28;20209;-49
2022/09/25 03:49:29;;;;;;;10.77;9.93;;;;;;;12.78;100.00;98160.53;4152288;28;20197;-48
2022/09/25 03:51:32;;;;;;;12.10;11.10;;;;;;;12.86;100.00;98161.91;4153542;28;20220;-49
2022/09/25 03:53:34;;;;;;;14.98;11.90;;;;;;;12.92;100.00;98158.06;4155011;28;20204;-47
2022/09/25 03:55:36;;;;;;;12.55;11.35;;;;;;;12.96;100.00;98165.53;4155070;28;20648;-48
2022/09/25 03:57:38;;;;;;;10.27;9.38;;;;;;;13.01;100.00;98165.53;4164847;28;20678;-47
2022/09/25 03:59:40;;;;;;;11.77;10.75;;;;;;;12.99;100.00;98156.75;4167056;28;20228;-49
2022/09/25 04:01:41;;;;;;;12.13;11.18;;;;;;;13.01;100.00;98165.53;4154256;28;20798;-48
2022/09/25 04:03:46;;;;;;;11.25;10.35;;;;;;;12.96;100.00;98162.78;4155278;28;20220;-49
2022/09/25 04:05:48;;;;;;;12.63;11.70;;;;;;;12.88;100.00;98160.53;4166143;28;20233;-49
2022/09/25 04:07:49;;;;;;;11.43;10.43;;;;;;;12.88;100.00;98165.19;4154266;28;20686;-48
2022/09/25 04:09:51;;;;;;;12.13;11.10;;;;;;;12.90;100.00;98158.34;4165314;28;20243;-48
2022/09/25 04:11:55;;;;;;;12.23;10.85;;;;;;;12.95;100.00;98161.13;4165328;28;20228;-49
2022/09/25 04:13:56;;;;;;;12.82;11.50;;;;;;;12.94;100.00;98153.13;4148953;28;20205;-48
2022/09/25 04:16:00;;;;;;;12.40;11.50;;;;;;;12.96;100.00;98157.28;4150801;28;20208;-50
2022/09/25 04:18:01;;;;;;;11.52;10.63;;;;;;;12.94;100.00;98164.94;4155075;28;20212;-49
2022/09/25 04:20:07;;;;;;;11.82;10.82;;;;;;;12.89;100.00;98164.94;4161333;28;20558;-50
2022/09/25 04:22:08;;;;;;;10.27;9.48;;;;;;;12.90;100.00;98163.84;4153315;28;20217;-49
2022/09/25 04:26:30;;;;;;;10.60;9.82;;;;;;;12.95;100.00;98169.38;4150009;28;20598;-49
2022/09/25 04:28:32;;;;;;;11.52;10.63;;;;;;;12.95;100.00;98161.13;4151590;28;20630;-50
2022/09/25 04:30:35;;;;;;;12.27;11.35;;;;;;;12.97;100.00;98158.94;4151257;28;20239;-50
2022/09/25 04:34:57;;;;;;;13.85;10.82;;;;;;;13.02;100.00;98166.34;4152231;28;20201;-49
2022/09/25 04:37:00;;;;;;;10.48;9.57;;;;;;;13.00;100.00;98161.13;4156856;28;20291;-49
2022/09/25 04:39:01;;;;;;;10.50;9.77;;;;;;;13.00;100.00;98169.38;4154041;28;20295;-49
2022/09/25 04:41:04;;;;;;;10.40;9.50;;;;;;;13.00;100.00;98169.38;4151551;28;20594;-50
2022/09/25 04:43:06;;;;;;;10.93;10.10;;;;;;;13.01;100.00;98171.03;4149527;28;20336;-49
2022/09/25 04:45:08;;;;;;;12.38;9.27;;;;;;;13.03;100.00;98168.81;4148829;28;20243;-49
2022/09/25 04:47:10;;;;;;;11.65;10.85;;;;;;;13.03;100.00;98168.81;4149706;28;20215;-49
2022/09/25 04:49:11;;;;;;;11.57;10.52;;;;;;;13.03;100.00;98171.56;4150770;28;20209;-49
2022/09/25 04:51:13;;;;;;;11.27;10.30;;;;;;;13.02;100.00;98178.16;4148780;28;20211;-49
2022/09/25 04:53:15;;;;;;;11.63;10.63;;;;;;;13.00;100.00;98171.28;4162152;28;20205;-49
2022/09/25 04:55:17;;;;;;;10.57;9.68;;;;;;;13.00;100.00;98169.38;4150951;28;20244;-50
2022/09/25 04:57:20;;;;;;;9.77;9.18;;;;;;;12.98;100.00;98179.78;4151279;28;20216;-49
2022/09/25 04:59:41;;;;;;;8.70;7.88;;;;;;;13.00;100.00;98179.53;4161769;28;20227;-49
2022/09/25 05:01:43;;;;;;;10.32;9.60;;;;;;;12.99;100.00;98173.22;4149807;28;20231;-49
2022/09/25 05:03:52;;;;;;;11.23;10.23;;;;;;;13.02;100.00;98180.91;4169040;28;20239;-50
2022/09/25 05:05:54;;;;;;;10.35;9.50;;;;;;;13.09;100.00;98178.72;4152291;28;20246;-49
2022/09/25 05:07:59;;;;;;;10.57;9.77;;;;;;;13.01;100.00;98176.53;4148852;28;20246;-49
2022/09/25 05:10:00;;;;;;;13.65;9.32;;;;;;;12.93;100.00;98178.94;4157522;28;20230;-49
2022/09/25 05:12:02;;;;;;;11.02;9.63;;;;;;;12.70;100.00;98169.31;4155850;28;20330;-49
2022/09/25 05:14:04;;;;;;;10.07;9.10;;;;;;;12.64;100.00;98178.63;4151949;28;20690;-50
2022/09/25 05:16:05;;;;;;;9.80;9.10;;;;;;;12.71;100.00;98176.44;4157696;28;20224;-51
2022/09/25 05:18:16;;;;;;;10.65;9.85;;;;;;;12.74;100.00;98180.56;4149775;28;20228;-50
2022/09/25 05:20:18;;;;;;;8.20;7.60;;;;;;;12.82;100.00;98177.28;4148258;28;20271;-49
2022/09/25 05:22:20;;;;;;;8.63;7.65;;;;;;;12.83;100.00;98182.50;4155036;28;20277;-49
2022/09/25 05:24:21;;;;;;;8.25;7.50;;;;;;;12.86;100.00;98184.72;4154828;28;20211;-49
2022/09/25 05:26:23;;;;;;;8.07;7.15;;;;;;;12.88;100.00;98178.94;4153746;28;20205;-50
2022/09/25 05:28:25;;;;;;;7.95;6.95;;;;;;;12.88;100.00;98174.28;4153411;28;20211;-50
2022/09/25 05:30:29;;;;;;;8.65;7.88;;;;;;;12.92;100.00;98178.13;4153884;28;20235;-49
2022/09/25 05:32:31;;;;;;;7.32;6.82;;;;;;;12.97;100.00;98174.59;4163362;28;20629;-50
2022/09/25 05:34:33;;;;;;;6.93;6.32;;;;;;;12.93;100.00;98179.78;4146801;28;20196;-49
2022/09/25 05:36:38;;;;;;;6.68;6.18;;;;;;;12.94;100.00;98175.94;4145397;28;20215;-50
2022/09/25 05:38:40;;;;;;;6.75;6.25;;;;;;;12.94;100.00;98175.94;4147887;28;20219;-49
2022/09/25 05:40:42;;;;;;;7.18;6.50;;;;;;;12.90;100.00;98180.31;4164741;28;20224;-50
2022/09/25 05:42:44;;;;;;;8.18;7.68;;;;;;;12.92;100.00;98172.66;4144773;28;20204;-50
2022/09/25 05:44:45;;;;;;;9.20;7.88;;;;;;;12.92;100.00;98177.31;4149244;28;20682;-50
2022/09/25 05:46:47;;;;;;;12.10;7.50;;;;;;;12.97;100.00;98180.91;4145037;28;20212;-49
2022/09/25 05:48:48;;;;;;;7.22;6.63;;;;;;;12.99;100.00;98186.97;4146736;28;20213;-50
2022/09/25 05:50:54;;;;;;;8.00;7.40;;;;;;;12.91;100.00;98187.44;4148236;28;20229;-49
2022/09/25 05:53:00;;;;;;;7.82;7.28;;;;;;;12.89;100.00;98188.84;4152934;28;20209;-49
2022/09/25 05:55:04;;;;;;;9.20;8.57;;;;;;;12.90;100.00;98188.56;4158104;28;20203;-50
2022/09/25 05:57:06;;;;;;;8.73;8.13;;;;;;;12.92;100.00;98188.28;4154845;28;20567;-50
2022/09/25 05:59:08;;;;;;;12.68;8.10;;;;;;;12.96;100.00;98182.00;4153459;28;20581;-50
2022/09/25 06:01:09;;;;;;;8.82;8.02;;;;;;;12.96;100.00;98190.25;4149338;28;20833;-50
2022/09/25 06:03:11;;;;;;;8.20;7.70;;;;;;;12.98;100.00;98188.03;4163861;28;20217;-50
2022/09/25 06:05:13;;;;;;;10.00;8.18;;;;;;;12.99;100.00;98189.72;4150736;28;20274;-51
2022/09/25 06:07:15;;;;;;;7.35;6.80;;;;;;;12.99;100.00;98189.72;4139807;28;20305;-49
2022/09/25 06:09:17;;;;;;;7.78;7.20;;;;;;;12.98;100.00;98193.53;4156961;28;20209;-50
2022/09/25 06:11:18;;;;;;;8.63;7.55;;;;;;;12.99;100.00;98200.69;4155605;28;20336;-50
2022/09/25 06:13:22;;;;;;;9.25;8.55;;;;;;;13.01;100.00;98193.00;4154525;28;20201;-49
2022/09/25 06:15:27;;;;;;;8.80;8.10;;;;;;;13.01;100.00;98198.50;4153859;28;20227;-49
2022/09/25 06:17:29;;;;;;;8.55;7.68;;;;;;;13.02;100.00;98196.56;4149846;28;20237;-50
2022/09/25 06:19:30;;;;;;;6.57;5.97;;;;;;;13.11;100.00;98208.66;4151383;28;20231;-50
2022/09/25 06:21:32;;;;;;;9.20;7.70;;;;;;;13.11;100.00;98203.97;4151299;28;20205;-49
2022/09/25 06:23:34;;;;;;;8.88;8.02;;;;;;;13.11;100.00;98203.16;4149104;28;20201;-49
2022/09/25 06:25:35;;;;;;;8.05;7.45;;;;;;;13.07;100.00;98202.91;4167261;28;20224;-50
2022/09/25 06:27:37;;;;;;;7.25;6.75;;;;;;;13.11;100.00;98209.47;4153888;28;20209;-51
2022/09/25 06:29:39;;;;;;;7.55;7.05;;;;;;;13.06;100.00;98203.16;4152755;28;20312;-50
2022/09/25 06:31:40;;;;;;;8.57;7.88;;;;;;;13.07;100.00;98205.66;4156821;28;20295;-50
2022/09/25 06:33:42;;;;;;;8.65;7.95;;;;;;;13.14;100.00;98197.97;4157898;28;20216;-49
2022/09/25 06:35:46;;;;;;;9.25;8.60;;;;;;;13.05;100.00;98198.78;4157119;28;20196;-50
2022/09/25 06:37:47;;;;;;;9.65;8.75;;;;;;;13.05;100.00;98202.31;4154432;28;20224;-49
2022/09/25 06:39:49;;;;;;;9.23;8.52;;;;;;;13.02;100.00;98208.38;4155036;28;20781;-50
2022/09/25 06:41:52;;;;;;;10.52;9.82;;;;;;;13.01;100.00;98204.00;4155561;28;20585;-49
2022/09/25 06:43:54;;;;;;;9.70;8.90;;;;;;;13.04;100.00;98197.13;4156609;28;20239;-49
2022/09/25 06:46:00;;;;;;;14.55;8.85;;;;;;;13.03;100.00;98200.97;4153233;28;20251;-50
2022/09/25 06:48:04;;;;;;;10.05;9.23;;;;;;;13.06;100.00;98205.91;4154542;28;20209;-50
2022/09/25 06:50:07;;;;;;;10.02;9.13;;;;;;;13.02;100.00;98205.63;4160112;28;20232;-49
2022/09/25 06:52:08;;;;;;;9.95;9.25;;;;;;;13.01;100.00;98211.38;4172202;28;20209;-49
2022/09/25 06:54:10;;;;;;;8.95;8.15;;;;;;;13.01;100.00;98212.22;4165139;28;20356;-50
2022/09/25 06:56:12;;;;;;;8.77;8.07;;;;;;;13.02;100.00;98213.88;4154151;28;20212;-49
2022/09/25 06:58:16;;;;;;;13.43;9.95;;;;;;;13.05;100.00;98204.25;4152996;28;20300;-51
2022/09/25 07:00:18;;;;;;;9.25;8.63;;;;;;;13.01;100.00;98209.47;4169888;28;20231;-50
2022/09/25 07:04:40;;;;;;;9.77;9.02;;;;;;;13.06;100.00;98211.41;4147571;28;20705;-49
2022/09/25 07:06:42;;;;;;;15.02;13.93;;;;;;;13.08;100.00;98207.28;4158187;28;20204;-49
2022/09/25 07:08:46;;;;;;;14.05;12.95;;;;;;;13.08;100.00;98212.78;4155239;28;20662;-49
2022/09/25 07:10:54;;;;;;;15.50;14.35;;;;;;;13.11;100.00;98212.22;4137457;28;20226;-49
2022/09/25 07:12:56;;;;;;;13.52;12.38;;;;;;;13.13;100.00;98206.47;4167570;28;20208;-49
2022/09/25 07:14:58;;;;;;;14.75;13.75;;;;;;;13.19;100.00;98211.69;4167305;28;20208;-49
2022/09/25 07:16:59;;;;;;;13.27;12.07;;;;;;;13.15;100.00;98199.59;4155542;28;20244;-50
2022/09/25 07:19:03;;;;;;;12.30;11.27;;;;;;;13.18;100.00;98203.72;4166916;28;20288;-49
2022/09/25 07:21:07;;;;;;;10.65;9.95;;;;;;;13.18;100.00;98215.53;4155418;28;20643;-50
2022/09/25 07:23:09;;;;;;;11.48;10.45;;;;;;;13.22;100.00;98211.13;4151084;28;20231;-49
2022/09/25 07:25:11;;;;;;;13.00;10.73;;;;;;;13.11;100.00;98220.47;4159175;28;20722;-49
2022/09/25 07:27:13;;;;;;;13.45;12.45;;;;;;;13.14;100.00;98213.59;4151722;28;20204;-50
2022/09/25 07:29:15;;;;;;;13.40;12.10;;;;;;;13.14;100.00;98219.94;4154751;28;20204;-49
2022/09/25 07:31:19;;;;;;;12.25;11.25;;;;;;;13.18;100.00;98214.72;4157251;28;20312;-50
2022/09/25 07:33:23;;;;;;;12.68;11.65;;;;;;;13.21;100.00;98219.66;4152593;28;20226;-50
2022/09/25 07:35:26;;;;;;;11.65;10.65;;;;;;;13.25;100.00;98221.56;4155852;28;21084;-49
2022/09/25 07:37:28;;;;;;;12.60;11.52;;;;;;;13.23;100.00;98222.97;4159415;28;20258;-50
2022/09/25 07:39:29;;;;;;;12.77;11.68;;;;;;;13.25;100.00;98213.31;4159107;28;20218;-50
2022/09/25 07:41:31;;;;;;;12.77;11.82;;;;;;;13.27;100.00;98213.91;4150232;28;20219;-50
2022/09/25 07:43:33;;;;;;;14.00;12.68;;;;;;;13.28;100.00;98221.03;4152463;28;20209;-50
2022/09/25 07:45:35;;;;;;;12.25;11.35;;;;;;;13.33;100.00;98220.22;4166693;28;20618;-49
2022/09/25 07:47:37;;;;;;;12.02;11.02;;;;;;;13.31;100.00;98220.47;4151726;28;20210;-50
2022/09/25 07:49:39;;;;;;;12.68;11.63;;;;;;;13.31;100.00;98220.47;4149943;28;20217;-50
2022/09/25 07:51:40;;;;;;;13.63;12.57;;;;;;;13.32;100.00;98227.66;4152354;28;20217;-50
2022/09/25 07:53:43;;;;;;;12.32;11.43;;;;;;;13.33;100.00;98222.97;4157735;28;20311;-50
2022/09/25 07:55:45;;;;;;;11.30;10.40;;;;;;;13.35;100.00;98224.34;4153554;28;20205;-49
2022/09/25 07:57:48;;;;;;;10.63;9.60;;;;;;;13.35;100.00;98221.59;4154021;28;20228;-49
2022/09/25 07:59:49;;;;;;;11.32;9.70;;;;;;;13.40;100.00;98223.50;4152700;28;20221;-50
2022/09/25 08:01:51;;;;;;;10.68;9.80;;;;;;;13.48;100.00;98226.53;4151745;28;20216;-50
2022/09/25 08:03:54;;;;;;;12.23;8.93;;;;;;;13.57;100.00;98215.81;4151299;28;20299;-49
2022/09/25 08:06:00;;;;;;;8.65;7.97;;;;;;;13.57;100.00;98224.88;4149799;28;20851;-50
2022/09/25 08:08:03;;;;;;;6.95;6.47;;;;;;;13.62;100.00;98222.13;4157771;28;20236;-50
2022/09/25 08:10:05;;;;;;;6.95;6.43;;;;;;;13.65;100.00;98218.84;4151244;28;20228;-50
2022/09/25 08:12:10;;;;;;;7.90;7.22;;;;;;;13.77;100.00;98215.78;4163719;28;20278;-49
2022/09/25 08:14:13;;;;;;;7.32;6.70;;;;;;;13.73;100.00;98220.19;4165745;28;20211;-49
2022/09/25 08:16:19;;;;;;;8.73;7.82;;;;;;;13.82;100.00;98222.09;4162643;28;20290;-49
2022/09/25 08:18:21;;;;;;;7.10;6.47;;;;;;;13.80;100.00;98224.31;4153456;28;20212;-50
2022/09/25 08:20:22;;;;;;;8.52;7.78;;;;;;;13.84;100.00;98230.88;4160271;28;20219;-48
2022/09/25 08:22:24;;;;;;;8.73;8.02;;;;;;;13.68;100.00;98226.50;4147319;28;20210;-47
2022/09/25 08:24:26;;;;;;;7.05;6.55;;;;;;;13.71;100.00;98222.38;4146690;28;20902;-48
2022/09/25 08:26:28;;;;;;;8.93;7.40;;;;;;;13.76;100.00;98223.19;4152620;28;20260;-48
2022/09/25 08:28:30;;;;;;;7.55;7.00;;;;;;;13.88;100.00;98222.91;4154590;28;20235;-47
2022/09/25 08:30:32;;;;;;;6.80;6.30;;;;;;;14.01;100.00;98225.91;4152204;28;20290;-49
2022/09/25 08:32:35;;;;;;;8.30;6.32;;;;;;;14.05;100.00;98227.00;4152101;28;20292;-48
2022/09/25 08:34:37;;;;;;;8.00;7.40;;;;;;;14.17;100.00;98230.25;4168303;28;20215;-48
2022/09/25 08:36:42;;;;;;;6.65;6.15;;;;;;;14.18;100.00;98237.44;4139908;28;20299;-48
2022/09/25 08:38:45;;;;;;;5.75;5.35;;;;;;;14.22;100.00;98235.78;4163836;28;20205;-48
2022/09/25 08:40:53;;;;;;;5.97;5.57;;;;;;;14.30;100.00;98229.69;4149995;28;20267;-48
2022/09/25 08:42:55;;;;;;;5.43;5.03;;;;;;;14.28;100.00;98231.06;4150851;28;20285;-48
2022/09/25 08:49:53;;;;;;;4.35;4.05;;;;;;;14.13;100.00;98226.44;4150746;28;20232;-49
2022/09/25 08:52:00;;;;;;;2.88;2.67;;;;;;;14.22;100.00;98224.78;4150444;28;20221;-49
2022/09/25 08:54:03;;;;;;;3.30;3.00;;;;;;;14.24;100.00;98230.81;4149193;28;20201;-48
2022/09/25 08:56:16;;;;;;;4.05;3.65;;;;;;;14.14;100.00;98228.06;4152670;28;20221;-48
2022/09/25 08:58:23;;;;;;;4.00;3.70;;;;;;;14.05;100.00;98232.50;4151055;28;20196;-49
2022/09/25 09:00:25;;;;;;;4.35;3.95;;;;;;;14.12;100.00;98233.03;4150051;28;20228;-48
2022/09/25 09:02:39;;;;;;;4.45;4.05;;;;;;;14.30;100.00;98229.69;4149983;28;20218;-48
2022/09/25 09:04:56;;;;;;;4.07;3.78;;;;;;;14.20;100.00;98229.75;4159470;28;20208;-47
2022/09/25 09:07:14;;;;;;;4.10;3.80;;;;;;;14.08;100.00;98225.59;4153890;28;20661;-48
2022/09/25 09:09:33;;;;;;;4.05;3.75;;;;;;;14.26;100.00;98225.03;4152778;28;21187;-48
2022/09/25 09:12:00;;;;;;;3.08;2.88;;;;;;;14.34;100.00;98227.19;4166416;28;20286;-48
2022/09/25 09:14:16;;;;;;;3.22;2.90;;;;;;;14.35;100.00;98232.44;4165551;28;20209;-49
2022/09/25 09:16:47;;;;;;;6.18;2.80;;;;;;;14.43;100.00;98229.09;4149162;28;20204;-48
2022/09/25 09:18:49;;;;;;;2.63;2.42;;;;;;;14.50;100.00;98240.63;4170660;28;20211;-48
2022/09/25 09:20:56;;;;;;;2.33;2.00;;;;;;;14.51;100.00;98236.75;4135552;28;20765;-48
2022/09/25 09:22:58;;;;;;;2.47;1.90;;;;;;;14.48;100.00;98237.34;4156794;28;20219;-47
2022/09/25 09:25:28;;;;;;;2.00;1.90;;;;;;;14.34;100.00;98233.53;4157190;28;20201;-48
2022/09/25 09:27:48;;;;;;;5.07;1.70;;;;;;;14.41;100.00;98245.06;4152166;28;20205;-48
2022/09/25 09:29:52;;;;;;;2.38;2.15;;;;;;;14.45;100.00;98237.06;4157142;28;20311;-48
2022/09/25 09:32:12;;;;;;;1.95;1.85;;;;;;;14.35;100.00;98245.34;4159399;28;20731;-48
2022/09/25 09:34:30;;;;;;;2.90;2.70;;;;;;;14.09;100.00;98236.34;4154727;28;20245;-48
2022/09/25 09:36:58;;;;;;;2.45;2.25;;;;;;;14.18;100.00;98237.44;4142611;28;20228;-47
2022/09/25 09:39:24;;;;;;;2.10;2.00;;;;;;;14.27;100.00;98241.28;4171005;28;20213;-47
2022/09/25 09:41:44;;;;;;;2.70;2.50;;;;;;;14.32;100.00;98234.91;4156211;28;20291;-47
2022/09/25 09:44:01;;;;;;;2.65;2.45;;;;;;;14.47;100.00;98235.69;4151653;28;20205;-47
2022/09/25 09:46:05;;;;;;;3.75;3.28;;;;;;;14.60;100.00;98240.59;4155199;28;20220;-48
2022/09/25 09:48:40;;;;;;;3.40;3.10;;;;;;;14.81;100.00;98236.63;4149159;28;20660;-48
2022/09/25 09:50:50;;;;;;;6.63;2.80;;;;;;;14.90;100.00;98240.41;4148802;28;20330;-47
2022/09/25 09:53:05;;;;;;;1.75;1.55;;;;;;;14.93;99.93;98237.09;4156524;28;20195;-48
2022/09/25 09:55:22;;;;;;;2.30;2.10;;;;;;;15.08;100.00;98231.50;4165542;28;20195;-48
2022/09/25 09:57:33;;;;;;;2.13;1.90;;;;;;;15.07;100.00;98234.53;4166715;28;20192;-47
2022/09/25 09:59:43;;;;;;;2.40;2.20;;;;;;;15.04;100.00;98230.41;4153039;28;20224;-47
2022/09/25 10:01:53;;;;;;;2.40;2.17;;;;;;;15.13;100.00;98234.22;4146336;28;20639;-47